Airfield :
LOGIN :

Register | Disclaimer

   EN    FR    IT 

 










Legend :    VFR   Marginal VFR   IFR   Intensive IFR   Very Intensive IFR
Visi :
Ceiling :
>= 8 km
>= 3000ft
5 to 8 km
1000 to 3000 ft
1500m to 5 km
500 to 1000 ft
800 to 1500m
200 to 500 ft
< 800m
< 200 ft
Symbols :   Thunderstorms  Fog  Heavy snow  Heavy precipitations  Wind > 20 kt
SIGMETs :     Misc.  Thunderstorms  Icing  Turbulence  Mountain Waves  Volcanic Ashes






- Airport Elevation : 42 ft
- IATA code : KGD


UMKK - Khrabrava - Kaliningrad

CURRENT METAR :
  • 241500Z 29009G14MPS 9999 BKN031 14/07 Q1004 R24/CLRD95 NOSIG RMK QFE752/1003

EXPIRED METARs :
  • 241430Z 30011G17MPS 9999 BKN037 14/07 Q1004 R24/CLRD95 NOSIG RMK QFE752/1002
  • 241400Z 30012G17MPS 9999 BKN037 15/07 Q1003 R24/CLRD95 NOSIG RMK QFE751/1002
  • 241330Z 31012G18MPS 9999 SCT035 15/07 Q1003 R24/CLRD95 NOSIG RMK QFE751/1001
  • 241300Z 30012G19MPS 9999 SCT030 15/07 Q1002 R24/95D NOSIG RMK QFE750/1001
  • 241230Z 30012G18MPS 9999 BKN031 15/08 Q1002 R24/CLRD95 NOSIG RMK QFE750/1000

TAF TAF UMKK
Valid from the 24 at 15:00 until the 25 at 15:00 UTC


241355Z 2415/2515 29009G17MPS 9999 BKN020
BECMG 2416/2417 26006G12MPS
BECMG 2420/2421 6000 -RA FEW006 BKN016
TEMPO 2421/2509 4000 -SHRA BR BKN006 BKN013CB
BECMG 2500/2502 27009G16MPS
BECMG 2509/2511 9999 SCT016



MET'MAP, your aeronautical weather chart ! - Copyright ORBIFLY December 2007 - Disclaimer

ORBIFLY MET'MAP TEAM :

Programming & Development : Alexandra Zaïnal
Concept & original design : Baudouin d'Aumeries
Assistance for programming : Marc-Olivier Méhu
Technical & hardware support : Manuel Goepfert

Contact : metmap@orbifly.com




SOURCES & CREDITS :

   NOAA